sensor_id;sensor_type;location;lat;lon;timestamp;P1;durP1;ratioP1;P2;durP2;ratioP2
11486;SDS011;10510;47.942;9.442;2023-09-19T00:00:27;4.53;;;1.73;;
11486;SDS011;10510;47.942;9.442;2023-09-19T00:02:27;5.50;;;1.27;;
11486;SDS011;10510;47.942;9.442;2023-09-19T00:04:30;4.60;;;1.77;;
11486;SDS011;10510;47.942;9.442;2023-09-19T00:06:32;2.38;;;1.33;;
11486;SDS011;10510;47.942;9.442;2023-09-19T00:08:32;5.07;;;1.90;;
11486;SDS011;10510;47.942;9.442;2023-09-19T00:10:33;3.97;;;1.50;;
11486;SDS011;10510;47.942;9.442;2023-09-19T00:12:36;4.22;;;1.40;;
11486;SDS011;10510;47.942;9.442;2023-09-19T00:14:37;2.45;;;1.70;;
11486;SDS011;10510;47.942;9.442;2023-09-19T00:16:37;6.68;;;1.50;;
11486;SDS011;10510;47.942;9.442;2023-09-19T00:18:38;5.43;;;1.40;;
11486;SDS011;10510;47.942;9.442;2023-09-19T00:20:38;3.90;;;1.70;;
11486;SDS011;10510;47.942;9.442;2023-09-19T00:22:39;4.75;;;1.70;;
11486;SDS011;10510;47.942;9.442;2023-09-19T00:24:41;2.55;;;1.25;;
11486;SDS011;10510;47.942;9.442;2023-09-19T00:26:41;7.28;;;2.03;;
11486;SDS011;10510;47.942;9.442;2023-09-19T00:28:42;4.72;;;1.63;;
11486;SDS011;10510;47.942;9.442;2023-09-19T00:30:42;3.53;;;1.52;;
11486;SDS011;10510;47.942;9.442;2023-09-19T00:32:43;3.05;;;1.25;;
11486;SDS011;10510;47.942;9.442;2023-09-19T00:34:44;2.20;;;1.50;;
11486;SDS011;10510;47.942;9.442;2023-09-19T00:36:44;4.05;;;2.35;;
11486;SDS011;10510;47.942;9.442;2023-09-19T00:38:45;4.43;;;1.65;;
11486;SDS011;10510;47.942;9.442;2023-09-19T00:40:49;2.75;;;1.52;;
11486;SDS011;10510;47.942;9.442;2023-09-19T00:42:53;4.75;;;2.17;;
11486;SDS011;10510;47.942;9.442;2023-09-19T00:44:59;4.20;;;1.20;;
11486;SDS011;10510;47.942;9.442;2023-09-19T00:47:03;3.80;;;1.60;;
11486;SDS011;10510;47.942;9.442;2023-09-19T00:49:04;4.25;;;1.73;;
11486;SDS011;10510;47.942;9.442;2023-09-19T00:51:04;3.20;;;1.63;;
11486;SDS011;10510;47.942;9.442;2023-09-19T00:53:04;5.38;;;1.65;;
11486;SDS011;10510;47.942;9.442;2023-09-19T00:55:10;5.47;;;1.30;;
11486;SDS011;10510;47.942;9.442;2023-09-19T00:57:14;3.38;;;1.67;;
11486;SDS011;10510;47.942;9.442;2023-09-19T00:59:15;3.88;;;1.58;;
11486;SDS011;10510;47.942;9.442;2023-09-19T01:01:15;2.55;;;1.33;;
11486;SDS011;10510;47.942;9.442;2023-09-19T01:03:17;5.35;;;2.17;;
11486;SDS011;10510;47.942;9.442;2023-09-19T01:05:18;6.45;;;1.70;;
11486;SDS011;10510;47.942;9.442;2023-09-19T01:07:18;3.97;;;1.20;;
11486;SDS011;10510;47.942;9.442;2023-09-19T01:09:19;3.42;;;1.38;;
11486;SDS011;10510;47.942;9.442;2023-09-19T01:11:35;3.47;;;1.45;;
11486;SDS011;10510;47.942;9.442;2023-09-19T01:13:45;3.33;;;1.48;;
11486;SDS011;10510;47.942;9.442;2023-09-19T01:15:50;2.27;;;1.37;;
11486;SDS011;10510;47.942;9.442;2023-09-19T01:20:39;2.70;;;1.55;;
11486;SDS011;10510;47.942;9.442;2023-09-19T01:30:08;3.53;;;1.40;;
11486;SDS011;10510;47.942;9.442;2023-09-19T01:32:16;3.07;;;1.30;;
11486;SDS011;10510;47.942;9.442;2023-09-19T01:34:21;3.08;;;1.45;;
11486;SDS011;10510;47.942;9.442;2023-09-19T01:36:21;4.57;;;1.60;;
11486;SDS011;10510;47.942;9.442;2023-09-19T01:38:23;2.25;;;1.20;;
11486;SDS011;10510;47.942;9.442;2023-09-19T01:40:23;4.20;;;1.50;;
11486;SDS011;10510;47.942;9.442;2023-09-19T01:42:31;3.50;;;1.35;;
11486;SDS011;10510;47.942;9.442;2023-09-19T01:44:44;4.30;;;1.50;;
11486;SDS011;10510;47.942;9.442;2023-09-19T01:46:56;6.28;;;1.77;;
11486;SDS011;10510;47.942;9.442;2023-09-19T01:51:21;5.88;;;1.92;;
11486;SDS011;10510;47.942;9.442;2023-09-19T01:53:37;5.53;;;2.38;;
11486;SDS011;10510;47.942;9.442;2023-09-19T01:55:56;6.57;;;1.70;;
11486;SDS011;10510;47.942;9.442;2023-09-19T01:58:01;2.38;;;1.50;;
11486;SDS011;10510;47.942;9.442;2023-09-19T02:00:08;4.28;;;1.48;;
11486;SDS011;10510;47.942;9.442;2023-09-19T02:02:11;2.60;;;1.52;;
11486;SDS011;10510;47.942;9.442;2023-09-19T02:04:14;8.77;;;1.83;;
11486;SDS011;10510;47.942;9.442;2023-09-19T02:06:15;6.43;;;1.60;;
11486;SDS011;10510;47.942;9.442;2023-09-19T02:08:18;2.25;;;1.30;;
11486;SDS011;10510;47.942;9.442;2023-09-19T02:10:19;4.28;;;1.52;;
11486;SDS011;10510;47.942;9.442;2023-09-19T02:12:20;2.40;;;1.20;;
11486;SDS011;10510;47.942;9.442;2023-09-19T02:14:20;3.28;;;1.73;;
11486;SDS011;10510;47.942;9.442;2023-09-19T02:16:21;5.97;;;1.65;;
11486;SDS011;10510;47.942;9.442;2023-09-19T02:18:21;6.70;;;1.80;;
11486;SDS011;10510;47.942;9.442;2023-09-19T02:20:22;3.53;;;1.55;;
11486;SDS011;10510;47.942;9.442;2023-09-19T02:22:22;3.97;;;1.38;;
11486;SDS011;10510;47.942;9.442;2023-09-19T02:24:22;3.08;;;1.48;;
11486;SDS011;10510;47.942;9.442;2023-09-19T02:26:26;3.35;;;1.60;;
11486;SDS011;10510;47.942;9.442;2023-09-19T02:28:27;3.90;;;2.13;;
11486;SDS011;10510;47.942;9.442;2023-09-19T02:30:32;3.22;;;1.38;;
11486;SDS011;10510;47.942;9.442;2023-09-19T02:32:33;6.75;;;1.60;;
11486;SDS011;10510;47.942;9.442;2023-09-19T02:34:36;4.45;;;2.13;;
11486;SDS011;10510;47.942;9.442;2023-09-19T02:36:37;3.05;;;1.00;;
11486;SDS011;10510;47.942;9.442;2023-09-19T02:38:38;3.53;;;1.33;;
11486;SDS011;10510;47.942;9.442;2023-09-19T02:40:39;2.95;;;1.30;;
11486;SDS011;10510;47.942;9.442;2023-09-19T02:42:39;4.05;;;1.10;;
11486;SDS011;10510;47.942;9.442;2023-09-19T02:44:42;3.25;;;1.23;;
11486;SDS011;10510;47.942;9.442;2023-09-19T02:46:42;2.80;;;1.23;;
11486;SDS011;10510;47.942;9.442;2023-09-19T02:48:43;2.00;;;1.23;;
11486;SDS011;10510;47.942;9.442;2023-09-19T02:50:43;2.42;;;1.10;;
11486;SDS011;10510;47.942;9.442;2023-09-19T02:52:44;4.53;;;1.50;;
11486;SDS011;10510;47.942;9.442;2023-09-19T02:54:48;2.25;;;1.45;;
11486;SDS011;10510;47.942;9.442;2023-09-19T02:56:49;1.67;;;1.05;;
11486;SDS011;10510;47.942;9.442;2023-09-19T02:58:49;2.05;;;1.10;;
11486;SDS011;10510;47.942;9.442;2023-09-19T03:00:49;2.05;;;1.27;;
11486;SDS011;10510;47.942;9.442;2023-09-19T03:02:53;2.65;;;1.35;;
11486;SDS011;10510;47.942;9.442;2023-09-19T03:04:54;2.58;;;1.05;;
11486;SDS011;10510;47.942;9.442;2023-09-19T03:06:56;3.42;;;1.30;;
11486;SDS011;10510;47.942;9.442;2023-09-19T03:09:00;1.70;;;0.85;;
11486;SDS011;10510;47.942;9.442;2023-09-19T03:11:00;3.15;;;1.02;;
11486;SDS011;10510;47.942;9.442;2023-09-19T03:13:00;2.72;;;0.85;;
11486;SDS011;10510;47.942;9.442;2023-09-19T03:15:02;2.85;;;1.73;;
11486;SDS011;10510;47.942;9.442;2023-09-19T03:17:04;3.92;;;1.25;;
11486;SDS011;10510;47.942;9.442;2023-09-19T03:19:04;1.80;;;1.30;;
11486;SDS011;10510;47.942;9.442;2023-09-19T03:21:05;2.10;;;0.90;;
11486;SDS011;10510;47.942;9.442;2023-09-19T03:23:05;1.92;;;1.02;;
11486;SDS011;10510;47.942;9.442;2023-09-19T03:25:06;1.58;;;1.02;;
11486;SDS011;10510;47.942;9.442;2023-09-19T03:27:11;2.05;;;1.13;;
11486;SDS011;10510;47.942;9.442;2023-09-19T03:29:16;1.58;;;1.05;;
11486;SDS011;10510;47.942;9.442;2023-09-19T03:31:17;4.20;;;1.00;;
11486;SDS011;10510;47.942;9.442;2023-09-19T03:33:17;5.93;;;1.20;;
11486;SDS011;10510;47.942;9.442;2023-09-19T03:35:18;1.95;;;0.82;;
11486;SDS011;10510;47.942;9.442;2023-09-19T03:37:19;4.15;;;1.13;;
11486;SDS011;10510;47.942;9.442;2023-09-19T03:39:19;2.17;;;0.90;;
11486;SDS011;10510;47.942;9.442;2023-09-19T03:41:19;3.80;;;1.02;;
11486;SDS011;10510;47.942;9.442;2023-09-19T03:43:20;3.05;;;1.13;;
11486;SDS011;10510;47.942;9.442;2023-09-19T03:45:20;3.67;;;1.20;;
11486;SDS011;10510;47.942;9.442;2023-09-19T03:47:21;3.15;;;1.00;;
11486;SDS011;10510;47.942;9.442;2023-09-19T03:49:21;1.25;;;0.65;;
11486;SDS011;10510;47.942;9.442;2023-09-19T03:51:21;2.65;;;1.30;;
11486;SDS011;10510;47.942;9.442;2023-09-19T03:53:22;3.17;;;1.20;;
11486;SDS011;10510;47.942;9.442;2023-09-19T03:55:22;2.47;;;1.38;;
11486;SDS011;10510;47.942;9.442;2023-09-19T03:57:22;2.65;;;0.82;;
11486;SDS011;10510;47.942;9.442;2023-09-19T03:59:22;3.75;;;1.63;;
11486;SDS011;10510;47.942;9.442;2023-09-19T04:01:23;2.53;;;0.88;;
11486;SDS011;10510;47.942;9.442;2023-09-19T04:03:24;2.83;;;1.15;;
11486;SDS011;10510;47.942;9.442;2023-09-19T04:05:34;1.77;;;0.90;;
11486;SDS011;10510;47.942;9.442;2023-09-19T04:07:34;3.63;;;1.23;;
11486;SDS011;10510;47.942;9.442;2023-09-19T04:09:34;3.05;;;1.10;;
11486;SDS011;10510;47.942;9.442;2023-09-19T04:11:35;3.67;;;1.00;;
11486;SDS011;10510;47.942;9.442;2023-09-19T04:13:35;1.75;;;0.80;;
11486;SDS011;10510;47.942;9.442;2023-09-19T04:15:36;3.75;;;0.95;;
11486;SDS011;10510;47.942;9.442;2023-09-19T04:17:37;6.38;;;1.02;;
11486;SDS011;10510;47.942;9.442;2023-09-19T04:19:37;3.60;;;0.80;;
11486;SDS011;10510;47.942;9.442;2023-09-19T04:21:38;3.17;;;1.10;;
11486;SDS011;10510;47.942;9.442;2023-09-19T04:23:38;1.75;;;1.00;;
11486;SDS011;10510;47.942;9.442;2023-09-19T04:25:40;1.98;;;1.50;;
11486;SDS011;10510;47.942;9.442;2023-09-19T04:27:40;2.25;;;0.63;;
11486;SDS011;10510;47.942;9.442;2023-09-19T04:29:44;2.55;;;1.95;;
11486;SDS011;10510;47.942;9.442;2023-09-19T04:31:44;5.18;;;0.98;;
11486;SDS011;10510;47.942;9.442;2023-09-19T04:33:45;3.60;;;1.60;;
11486;SDS011;10510;47.942;9.442;2023-09-19T04:35:48;1.55;;;1.13;;
11486;SDS011;10510;47.942;9.442;2023-09-19T04:37:50;3.60;;;1.48;;
11486;SDS011;10510;47.942;9.442;2023-09-19T04:39:50;3.13;;;1.17;;
11486;SDS011;10510;47.942;9.442;2023-09-19T04:41:51;4.30;;;1.10;;
11486;SDS011;10510;47.942;9.442;2023-09-19T04:43:52;1.60;;;0.90;;
11486;SDS011;10510;47.942;9.442;2023-09-19T04:45:53;2.10;;;0.90;;
11486;SDS011;10510;47.942;9.442;2023-09-19T04:47:55;1.35;;;0.85;;
11486;SDS011;10510;47.942;9.442;2023-09-19T04:49:56;1.17;;;0.80;;
11486;SDS011;10510;47.942;9.442;2023-09-19T04:51:58;1.52;;;0.85;;
11486;SDS011;10510;47.942;9.442;2023-09-19T04:53:59;1.92;;;1.13;;
11486;SDS011;10510;47.942;9.442;2023-09-19T04:55:59;1.17;;;0.98;;
11486;SDS011;10510;47.942;9.442;2023-09-19T04:57:59;3.35;;;1.13;;
11486;SDS011;10510;47.942;9.442;2023-09-19T04:59:59;2.90;;;1.50;;
11486;SDS011;10510;47.942;9.442;2023-09-19T05:02:00;2.72;;;1.38;;
11486;SDS011;10510;47.942;9.442;2023-09-19T05:04:00;2.25;;;1.20;;
11486;SDS011;10510;47.942;9.442;2023-09-19T05:06:00;1.70;;;0.88;;
11486;SDS011;10510;47.942;9.442;2023-09-19T05:08:01;2.35;;;1.08;;
11486;SDS011;10510;47.942;9.442;2023-09-19T05:10:05;5.20;;;1.58;;
11486;SDS011;10510;47.942;9.442;2023-09-19T05:12:06;4.05;;;2.25;;
11486;SDS011;10510;47.942;9.442;2023-09-19T05:14:07;2.63;;;1.17;;
11486;SDS011;10510;47.942;9.442;2023-09-19T05:16:07;3.40;;;1.48;;
11486;SDS011;10510;47.942;9.442;2023-09-19T05:18:10;4.15;;;1.10;;
11486;SDS011;10510;47.942;9.442;2023-09-19T05:20:10;5.55;;;2.15;;
11486;SDS011;10510;47.942;9.442;2023-09-19T05:22:26;2.80;;;1.60;;
11486;SDS011;10510;47.942;9.442;2023-09-19T05:24:27;3.78;;;1.23;;
11486;SDS011;10510;47.942;9.442;2023-09-19T05:26:27;4.88;;;1.20;;
11486;SDS011;10510;47.942;9.442;2023-09-19T05:28:27;2.45;;;1.33;;
11486;SDS011;10510;47.942;9.442;2023-09-19T05:30:28;2.97;;;1.02;;
11486;SDS011;10510;47.942;9.442;2023-09-19T05:32:29;2.30;;;1.02;;
11486;SDS011;10510;47.942;9.442;2023-09-19T05:34:29;2.67;;;1.25;;
11486;SDS011;10510;47.942;9.442;2023-09-19T05:36:30;3.03;;;1.08;;
11486;SDS011;10510;47.942;9.442;2023-09-19T05:38:30;2.10;;;1.33;;
11486;SDS011;10510;47.942;9.442;2023-09-19T05:40:30;4.40;;;1.05;;
11486;SDS011;10510;47.942;9.442;2023-09-19T05:42:31;1.15;;;0.80;;
11486;SDS011;10510;47.942;9.442;2023-09-19T05:44:31;2.33;;;1.10;;
11486;SDS011;10510;47.942;9.442;2023-09-19T05:46:33;1.85;;;1.17;;
11486;SDS011;10510;47.942;9.442;2023-09-19T05:48:33;3.58;;;1.17;;
11486;SDS011;10510;47.942;9.442;2023-09-19T05:50:34;1.83;;;1.00;;
11486;SDS011;10510;47.942;9.442;2023-09-19T05:52:37;2.28;;;1.33;;
11486;SDS011;10510;47.942;9.442;2023-09-19T05:54:38;2.88;;;1.65;;
11486;SDS011;10510;47.942;9.442;2023-09-19T05:56:38;3.65;;;1.20;;
11486;SDS011;10510;47.942;9.442;2023-09-19T05:58:39;1.80;;;1.17;;
11486;SDS011;10510;47.942;9.442;2023-09-19T06:00:41;3.17;;;1.10;;
11486;SDS011;10510;47.942;9.442;2023-09-19T06:02:43;2.70;;;0.75;;
11486;SDS011;10510;47.942;9.442;2023-09-19T06:04:44;3.55;;;1.00;;
11486;SDS011;10510;47.942;9.442;2023-09-19T06:06:45;7.57;;;1.13;;
11486;SDS011;10510;47.942;9.442;2023-09-19T06:08:48;2.17;;;0.98;;
11486;SDS011;10510;47.942;9.442;2023-09-19T06:10:50;2.05;;;0.75;;
11486;SDS011;10510;47.942;9.442;2023-09-19T06:12:52;3.13;;;1.10;;
11486;SDS011;10510;47.942;9.442;2023-09-19T06:14:53;1.08;;;0.82;;
11486;SDS011;10510;47.942;9.442;2023-09-19T06:16:54;2.42;;;1.00;;
11486;SDS011;10510;47.942;9.442;2023-09-19T06:18:54;5.15;;;1.48;;
11486;SDS011;10510;47.942;9.442;2023-09-19T06:20:55;1.13;;;0.80;;
11486;SDS011;10510;47.942;9.442;2023-09-19T06:22:56;1.88;;;0.68;;
11486;SDS011;10510;47.942;9.442;2023-09-19T06:24:57;4.50;;;0.77;;
11486;SDS011;10510;47.942;9.442;2023-09-19T06:26:57;2.00;;;1.10;;
11486;SDS011;10510;47.942;9.442;2023-09-19T06:29:01;2.03;;;0.90;;
11486;SDS011;10510;47.942;9.442;2023-09-19T06:31:06;7.07;;;0.90;;
11486;SDS011;10510;47.942;9.442;2023-09-19T06:33:09;2.78;;;1.10;;
11486;SDS011;10510;47.942;9.442;2023-09-19T06:35:12;4.00;;;1.00;;
11486;SDS011;10510;47.942;9.442;2023-09-19T06:37:14;2.25;;;0.70;;
11486;SDS011;10510;47.942;9.442;2023-09-19T06:39:14;1.27;;;0.68;;
11486;SDS011;10510;47.942;9.442;2023-09-19T06:41:14;1.23;;;0.80;;
11486;SDS011;10510;47.942;9.442;2023-09-19T06:43:15;2.78;;;0.90;;
11486;SDS011;10510;47.942;9.442;2023-09-19T06:45:16;1.13;;;0.70;;
11486;SDS011;10510;47.942;9.442;2023-09-19T06:47:19;1.27;;;0.85;;
11486;SDS011;10510;47.942;9.442;2023-09-19T06:49:20;2.78;;;0.70;;
11486;SDS011;10510;47.942;9.442;2023-09-19T06:51:20;1.75;;;0.90;;
11486;SDS011;10510;47.942;9.442;2023-09-19T06:53:20;1.58;;;0.77;;
11486;SDS011;10510;47.942;9.442;2023-09-19T06:55:23;2.63;;;0.90;;
11486;SDS011;10510;47.942;9.442;2023-09-19T06:57:25;1.90;;;0.80;;
11486;SDS011;10510;47.942;9.442;2023-09-19T06:59:25;1.67;;;0.98;;
11486;SDS011;10510;47.942;9.442;2023-09-19T07:01:25;1.42;;;0.82;;
11486;SDS011;10510;47.942;9.442;2023-09-19T07:03:26;1.85;;;0.80;;
11486;SDS011;10510;47.942;9.442;2023-09-19T07:05:28;1.13;;;0.70;;
11486;SDS011;10510;47.942;9.442;2023-09-19T07:07:32;1.92;;;1.08;;
11486;SDS011;10510;47.942;9.442;2023-09-19T07:09:34;2.22;;;0.80;;
11486;SDS011;10510;47.942;9.442;2023-09-19T07:11:35;5.32;;;1.77;;
11486;SDS011;10510;47.942;9.442;2023-09-19T07:13:35;2.22;;;1.17;;
11486;SDS011;10510;47.942;9.442;2023-09-19T07:15:37;2.83;;;0.90;;
11486;SDS011;10510;47.942;9.442;2023-09-19T07:17:41;1.00;;;0.65;;
11486;SDS011;10510;47.942;9.442;2023-09-19T07:19:41;6.82;;;0.88;;
11486;SDS011;10510;47.942;9.442;2023-09-19T07:21:42;3.38;;;1.00;;
11486;SDS011;10510;47.942;9.442;2023-09-19T07:23:42;1.83;;;1.02;;
11486;SDS011;10510;47.942;9.442;2023-09-19T07:25:42;1.77;;;0.98;;
11486;SDS011;10510;47.942;9.442;2023-09-19T07:27:43;1.20;;;0.90;;
11486;SDS011;10510;47.942;9.442;2023-09-19T07:29:43;1.50;;;0.77;;
11486;SDS011;10510;47.942;9.442;2023-09-19T07:31:44;3.10;;;1.05;;
11486;SDS011;10510;47.942;9.442;2023-09-19T07:33:46;1.30;;;0.80;;
11486;SDS011;10510;47.942;9.442;2023-09-19T07:35:47;2.85;;;2.13;;
11486;SDS011;10510;47.942;9.442;2023-09-19T07:37:48;3.20;;;1.23;;
11486;SDS011;10510;47.942;9.442;2023-09-19T07:39:49;3.17;;;0.80;;
11486;SDS011;10510;47.942;9.442;2023-09-19T07:41:50;6.07;;;1.00;;
11486;SDS011;10510;47.942;9.442;2023-09-19T07:43:51;1.25;;;0.85;;
11486;SDS011;10510;47.942;9.442;2023-09-19T07:45:52;1.35;;;0.80;;
11486;SDS011;10510;47.942;9.442;2023-09-19T07:47:52;1.70;;;0.68;;
11486;SDS011;10510;47.942;9.442;2023-09-19T07:49:52;2.83;;;1.08;;
11486;SDS011;10510;47.942;9.442;2023-09-19T07:51:53;1.75;;;0.88;;
11486;SDS011;10510;47.942;9.442;2023-09-19T07:53:54;2.35;;;0.80;;
11486;SDS011;10510;47.942;9.442;2023-09-19T07:56:01;3.58;;;0.68;;
11486;SDS011;10510;47.942;9.442;2023-09-19T07:58:03;2.47;;;0.90;;
11486;SDS011;10510;47.942;9.442;2023-09-19T08:00:05;1.30;;;0.70;;
11486;SDS011;10510;47.942;9.442;2023-09-19T08:02:07;1.85;;;0.68;;
11486;SDS011;10510;47.942;9.442;2023-09-19T08:04:09;1.52;;;0.80;;
11486;SDS011;10510;47.942;9.442;2023-09-19T08:06:10;1.58;;;0.77;;
11486;SDS011;10510;47.942;9.442;2023-09-19T08:08:10;2.80;;;0.55;;
11486;SDS011;10510;47.942;9.442;2023-09-19T08:10:13;1.33;;;0.90;;
11486;SDS011;10510;47.942;9.442;2023-09-19T08:12:15;1.98;;;0.80;;
11486;SDS011;10510;47.942;9.442;2023-09-19T08:14:16;1.27;;;0.73;;
11486;SDS011;10510;47.942;9.442;2023-09-19T08:16:17;1.17;;;0.77;;
11486;SDS011;10510;47.942;9.442;2023-09-19T08:18:22;1.52;;;0.50;;
11486;SDS011;10510;47.942;9.442;2023-09-19T08:20:22;3.53;;;0.75;;
11486;SDS011;10510;47.942;9.442;2023-09-19T08:22:23;2.55;;;0.80;;
11486;SDS011;10510;47.942;9.442;2023-09-19T08:24:25;1.77;;;0.90;;
11486;SDS011;10510;47.942;9.442;2023-09-19T08:26:28;4.13;;;0.98;;
11486;SDS011;10510;47.942;9.442;2023-09-19T08:28:28;1.20;;;0.57;;
11486;SDS011;10510;47.942;9.442;2023-09-19T08:30:29;4.20;;;1.00;;
11486;SDS011;10510;47.942;9.442;2023-09-19T08:32:30;2.80;;;0.73;;
11486;SDS011;10510;47.942;9.442;2023-09-19T08:34:30;1.52;;;0.60;;
11486;SDS011;10510;47.942;9.442;2023-09-19T08:36:33;1.05;;;0.50;;
11486;SDS011;10510;47.942;9.442;2023-09-19T08:38:35;2.45;;;0.90;;
11486;SDS011;10510;47.942;9.442;2023-09-19T08:40:37;3.78;;;0.70;;
11486;SDS011;10510;47.942;9.442;2023-09-19T08:42:49;3.25;;;0.90;;
11486;SDS011;10510;47.942;9.442;2023-09-19T08:44:50;2.55;;;0.82;;
11486;SDS011;10510;47.942;9.442;2023-09-19T08:46:53;1.27;;;0.60;;
11486;SDS011;10510;47.942;9.442;2023-09-19T08:48:58;1.60;;;0.90;;
11486;SDS011;10510;47.942;9.442;2023-09-19T08:51:07;5.90;;;0.90;;
11486;SDS011;10510;47.942;9.442;2023-09-19T08:53:28;1.58;;;0.88;;
11486;SDS011;10510;47.942;9.442;2023-09-19T08:55:41;1.90;;;0.80;;
11486;SDS011;10510;47.942;9.442;2023-09-19T08:57:43;1.15;;;0.60;;
11486;SDS011;10510;47.942;9.442;2023-09-19T08:59:48;3.40;;;0.73;;
11486;SDS011;10510;47.942;9.442;2023-09-19T09:01:49;4.68;;;0.80;;
11486;SDS011;10510;47.942;9.442;2023-09-19T09:03:54;4.20;;;0.80;;
11486;SDS011;10510;47.942;9.442;2023-09-19T09:05:54;1.67;;;0.75;;
11486;SDS011;10510;47.942;9.442;2023-09-19T09:07:56;2.20;;;1.17;;
11486;SDS011;10510;47.942;9.442;2023-09-19T09:09:58;2.08;;;0.88;;
11486;SDS011;10510;47.942;9.442;2023-09-19T09:11:58;1.55;;;0.63;;
11486;SDS011;10510;47.942;9.442;2023-09-19T09:13:59;1.55;;;0.75;;
11486;SDS011;10510;47.942;9.442;2023-09-19T09:16:00;2.25;;;0.60;;
11486;SDS011;10510;47.942;9.442;2023-09-19T09:18:00;2.08;;;0.70;;
11486;SDS011;10510;47.942;9.442;2023-09-19T09:20:00;1.40;;;0.65;;
11486;SDS011;10510;47.942;9.442;2023-09-19T09:22:07;2.00;;;0.80;;
11486;SDS011;10510;47.942;9.442;2023-09-19T09:24:27;1.05;;;0.60;;
11486;SDS011;10510;47.942;9.442;2023-09-19T09:28:44;3.55;;;0.80;;
11486;SDS011;10510;47.942;9.442;2023-09-19T09:30:45;1.45;;;0.73;;
11486;SDS011;10510;47.942;9.442;2023-09-19T09:32:46;3.10;;;0.60;;
11486;SDS011;10510;47.942;9.442;2023-09-19T09:34:48;1.45;;;0.57;;
11486;SDS011;10510;47.942;9.442;2023-09-19T09:36:53;1.92;;;0.80;;
11486;SDS011;10510;47.942;9.442;2023-09-19T09:38:53;3.05;;;0.88;;
11486;SDS011;10510;47.942;9.442;2023-09-19T09:40:55;2.35;;;0.88;;
11486;SDS011;10510;47.942;9.442;2023-09-19T09:43:09;1.85;;;0.70;;
11486;SDS011;10510;47.942;9.442;2023-09-19T09:45:25;2.60;;;0.82;;
11486;SDS011;10510;47.942;9.442;2023-09-19T09:47:43;1.45;;;0.80;;
11486;SDS011;10510;47.942;9.442;2023-09-19T09:49:50;1.73;;;0.77;;
11486;SDS011;10510;47.942;9.442;2023-09-19T09:52:04;3.10;;;0.75;;
11486;SDS011;10510;47.942;9.442;2023-09-19T09:54:10;2.65;;;0.70;;
11486;SDS011;10510;47.942;9.442;2023-09-19T09:56:19;2.33;;;0.80;;
11486;SDS011;10510;47.942;9.442;2023-09-19T09:58:19;3.47;;;0.55;;
11486;SDS011;10510;47.942;9.442;2023-09-19T10:00:22;1.85;;;0.90;;
11486;SDS011;10510;47.942;9.442;2023-09-19T10:02:27;0.93;;;0.60;;
11486;SDS011;10510;47.942;9.442;2023-09-19T10:04:36;1.15;;;0.63;;
11486;SDS011;10510;47.942;9.442;2023-09-19T10:06:44;1.58;;;0.70;;
11486;SDS011;10510;47.942;9.442;2023-09-19T10:11:21;2.00;;;0.70;;
11486;SDS011;10510;47.942;9.442;2023-09-19T10:13:30;3.28;;;0.68;;
11486;SDS011;10510;47.942;9.442;2023-09-19T10:15:33;2.22;;;0.60;;
11486;SDS011;10510;47.942;9.442;2023-09-19T10:17:34;2.42;;;0.60;;
11486;SDS011;10510;47.942;9.442;2023-09-19T10:19:37;2.83;;;0.88;;
11486;SDS011;10510;47.942;9.442;2023-09-19T10:21:57;1.52;;;0.60;;
11486;SDS011;10510;47.942;9.442;2023-09-19T10:23:59;1.88;;;0.63;;
11486;SDS011;10510;47.942;9.442;2023-09-19T10:26:02;1.85;;;0.60;;
11486;SDS011;10510;47.942;9.442;2023-09-19T10:28:05;1.98;;;0.60;;
11486;SDS011;10510;47.942;9.442;2023-09-19T10:30:10;1.58;;;0.50;;
11486;SDS011;10510;47.942;9.442;2023-09-19T10:32:12;1.83;;;0.80;;
11486;SDS011;10510;47.942;9.442;2023-09-19T10:34:18;1.63;;;0.70;;
11486;SDS011;10510;47.942;9.442;2023-09-19T10:36:21;2.30;;;0.68;;
11486;SDS011;10510;47.942;9.442;2023-09-19T10:38:26;1.98;;;0.65;;
11486;SDS011;10510;47.942;9.442;2023-09-19T10:40:28;2.08;;;0.70;;
11486;SDS011;10510;47.942;9.442;2023-09-19T10:42:30;2.60;;;0.85;;
11486;SDS011;10510;47.942;9.442;2023-09-19T10:44:33;0.52;;;0.50;;
11486;SDS011;10510;47.942;9.442;2023-09-19T10:46:33;1.23;;;0.50;;
11486;SDS011;10510;47.942;9.442;2023-09-19T10:48:33;1.17;;;0.60;;
11486;SDS011;10510;47.942;9.442;2023-09-19T10:50:43;1.38;;;0.60;;
11486;SDS011;10510;47.942;9.442;2023-09-19T10:52:48;2.85;;;0.65;;
11486;SDS011;10510;47.942;9.442;2023-09-19T10:54:52;2.40;;;0.52;;
11486;SDS011;10510;47.942;9.442;2023-09-19T10:56:57;2.08;;;0.88;;
11486;SDS011;10510;47.942;9.442;2023-09-19T10:59:05;7.57;;;1.52;;
11486;SDS011;10510;47.942;9.442;2023-09-19T11:01:08;9.77;;;1.75;;
11486;SDS011;10510;47.942;9.442;2023-09-19T11:03:18;2.60;;;0.63;;
11486;SDS011;10510;47.942;9.442;2023-09-19T11:05:21;2.42;;;0.80;;
11486;SDS011;10510;47.942;9.442;2023-09-19T11:07:22;2.95;;;0.70;;
11486;SDS011;10510;47.942;9.442;2023-09-19T11:09:33;2.15;;;0.73;;
11486;SDS011;10510;47.942;9.442;2023-09-19T11:11:57;2.50;;;0.95;;
11486;SDS011;10510;47.942;9.442;2023-09-19T11:16:20;2.80;;;0.60;;
11486;SDS011;10510;47.942;9.442;2023-09-19T11:20:42;1.38;;;0.65;;
11486;SDS011;10510;47.942;9.442;2023-09-19T11:24:48;3.65;;;0.98;;
11486;SDS011;10510;47.942;9.442;2023-09-19T11:26:51;3.05;;;0.80;;
11486;SDS011;10510;47.942;9.442;2023-09-19T11:28:57;2.60;;;0.90;;
11486;SDS011;10510;47.942;9.442;2023-09-19T11:31:43;3.58;;;0.73;;
11486;SDS011;10510;47.942;9.442;2023-09-19T11:33:48;3.30;;;0.90;;
11486;SDS011;10510;47.942;9.442;2023-09-19T11:38:15;2.50;;;0.65;;
11486;SDS011;10510;47.942;9.442;2023-09-19T11:40:16;3.22;;;0.82;;
11486;SDS011;10510;47.942;9.442;2023-09-19T11:44:45;3.80;;;1.00;;
11486;SDS011;10510;47.942;9.442;2023-09-19T11:48:52;3.40;;;1.00;;
11486;SDS011;10510;47.942;9.442;2023-09-19T11:50:52;5.85;;;1.00;;
11486;SDS011;10510;47.942;9.442;2023-09-19T11:52:53;4.45;;;0.95;;
11486;SDS011;10510;47.942;9.442;2023-09-19T11:54:55;2.40;;;0.80;;
11486;SDS011;10510;47.942;9.442;2023-09-19T11:56:57;2.72;;;0.80;;
11486;SDS011;10510;47.942;9.442;2023-09-19T11:58:59;1.95;;;0.77;;
11486;SDS011;10510;47.942;9.442;2023-09-19T12:01:00;2.00;;;0.82;;
11486;SDS011;10510;47.942;9.442;2023-09-19T12:03:02;3.20;;;0.95;;
11486;SDS011;10510;47.942;9.442;2023-09-19T12:05:09;0.73;;;0.57;;
11486;SDS011;10510;47.942;9.442;2023-09-19T12:07:13;1.48;;;0.75;;
11486;SDS011;10510;47.942;9.442;2023-09-19T12:09:19;3.67;;;0.68;;
11486;SDS011;10510;47.942;9.442;2023-09-19T12:11:21;4.30;;;1.65;;
11486;SDS011;10510;47.942;9.442;2023-09-19T12:13:23;1.85;;;0.80;;
11486;SDS011;10510;47.942;9.442;2023-09-19T12:15:23;0.80;;;0.50;;
11486;SDS011;10510;47.942;9.442;2023-09-19T12:17:38;2.72;;;0.57;;
11486;SDS011;10510;47.942;9.442;2023-09-19T12:19:49;1.08;;;0.68;;
11486;SDS011;10510;47.942;9.442;2023-09-19T12:21:56;1.75;;;0.82;;
11486;SDS011;10510;47.942;9.442;2023-09-19T12:24:12;1.25;;;0.60;;
11486;SDS011;10510;47.942;9.442;2023-09-19T12:26:19;3.90;;;1.38;;
11486;SDS011;10510;47.942;9.442;2023-09-19T12:28:20;1.40;;;0.52;;
11486;SDS011;10510;47.942;9.442;2023-09-19T12:30:27;2.65;;;0.70;;
11486;SDS011;10510;47.942;9.442;2023-09-19T12:32:34;2.20;;;0.90;;
11486;SDS011;10510;47.942;9.442;2023-09-19T12:34:35;2.40;;;0.82;;
11486;SDS011;10510;47.942;9.442;2023-09-19T12:36:39;1.25;;;0.80;;
11486;SDS011;10510;47.942;9.442;2023-09-19T12:38:41;3.00;;;1.15;;
11486;SDS011;10510;47.942;9.442;2023-09-19T12:40:48;0.63;;;0.55;;
11486;SDS011;10510;47.942;9.442;2023-09-19T12:42:51;3.08;;;0.70;;
11486;SDS011;10510;47.942;9.442;2023-09-19T12:44:54;2.60;;;0.90;;
11486;SDS011;10510;47.942;9.442;2023-09-19T12:46:57;2.65;;;0.80;;
11486;SDS011;10510;47.942;9.442;2023-09-19T12:49:18;3.13;;;0.75;;
11486;SDS011;10510;47.942;9.442;2023-09-19T12:51:19;3.28;;;0.88;;